createdAt,value
2019-04-20T00:01:29.267Z,90.70
2019-04-20T00:03:56.269Z,91.30
2019-04-20T00:06:25.072Z,91.80
2019-04-20T00:09:03.282Z,91.70
2019-04-20T00:11:29.575Z,91.40
2019-04-20T00:14:02.052Z,91.60
2019-04-20T00:16:25.306Z,91.60
2019-04-20T00:18:58.241Z,92.10
2019-04-20T00:21:46.970Z,92.10
2019-04-20T00:24:22.859Z,92.80
2019-04-20T00:27:19.616Z,93.00
2019-04-20T00:29:38.056Z,92.80
2019-04-20T00:32:01.544Z,93.30
2019-04-20T00:34:24.130Z,93.20
2019-04-20T00:36:47.448Z,93.80
2019-04-20T00:39:17.166Z,94.10
2019-04-20T00:41:51.648Z,94.60
2019-04-20T00:44:23.344Z,95.00
2019-04-20T00:47:01.903Z,95.30
2019-04-20T00:49:34.909Z,95.80
2019-04-20T00:52:18.763Z,96.90
2019-04-20T00:54:20.119Z,96.90
2019-04-20T00:57:05.787Z,97.60
2019-04-20T00:59:35.514Z,98.80
2019-04-20T01:02:13.153Z,98.90
2019-04-20T01:04:44.975Z,99.80
2019-04-20T01:07:11.324Z,99.90
2019-04-20T01:09:47.816Z,99.90
2019-04-20T01:12:22.463Z,99.90
2019-04-20T01:14:54.009Z,99.90
2019-04-20T01:17:17.857Z,99.90
2019-04-20T01:19:48.912Z,99.90
2019-04-20T01:22:22.383Z,99.90
2019-04-20T01:24:51.590Z,99.90
2019-04-20T01:27:32.572Z,99.90
2019-04-20T01:29:57.641Z,99.90
2019-04-20T01:32:31.162Z,99.90
2019-04-20T01:35:02.137Z,99.90
2019-04-20T01:37:32.807Z,99.90
2019-04-20T01:39:59.303Z,99.90
2019-04-20T01:42:27.474Z,99.90
2019-04-20T01:44:59.016Z,99.90
2019-04-20T01:47:36.248Z,99.90
2019-04-20T01:50:08.570Z,99.90
2019-04-20T01:52:44.266Z,99.90
2019-04-20T01:55:24.838Z,99.90
2019-04-20T01:57:56.178Z,99.90
2019-04-20T02:00:29.997Z,99.90
2019-04-20T02:03:01.759Z,99.90
2019-04-20T02:05:33.715Z,99.90
2019-04-20T02:08:00.238Z,99.90
2019-04-20T02:10:37.015Z,99.90
2019-04-20T02:13:02.890Z,99.90
2019-04-20T02:15:37.920Z,99.90
2019-04-20T02:18:14.960Z,99.90
2019-04-20T02:20:48.758Z,99.90
2019-04-20T02:23:14.558Z,99.90
2019-04-20T02:25:31.250Z,99.90
2019-04-20T02:28:19.022Z,99.90
2019-04-20T02:31:06.365Z,99.90
2019-04-20T02:33:41.927Z,99.90
2019-04-20T02:36:33.655Z,99.90
2019-04-20T02:41:36.111Z,99.90
2019-04-20T02:44:06.354Z,99.90
2019-04-20T02:46:33.446Z,99.90
2019-04-20T02:49:12.861Z,99.90
2019-04-20T02:51:33.024Z,99.90
2019-04-20T02:54:11.433Z,99.90
2019-04-20T02:59:29.631Z,99.90
2019-04-20T03:01:29.444Z,99.90
2019-04-20T03:03:41.361Z,99.90
2019-04-20T03:06:19.646Z,99.90
2019-04-20T03:09:00.004Z,99.90
2019-04-20T03:11:29.528Z,99.90
2019-04-20T03:13:59.048Z,99.90
2019-04-20T03:16:29.947Z,99.90
2019-04-20T03:18:55.810Z,99.90
2019-04-20T03:21:33.323Z,99.90
2019-04-20T03:24:08.432Z,99.90
2019-04-20T03:26:36.718Z,99.90
2019-04-20T03:29:03.936Z,99.90
2019-04-20T03:34:55.364Z,99.90
2019-04-20T03:37:08.433Z,99.90
2019-04-20T03:39:28.711Z,99.90
2019-04-20T03:41:46.635Z,99.90
2019-04-20T03:44:15.443Z,99.90
2019-04-20T03:46:47.882Z,99.90
2019-04-20T03:49:38.058Z,99.90
2019-04-20T03:52:05.104Z,99.90
2019-04-20T03:54:40.793Z,99.90
2019-04-20T03:57:23.602Z,99.90
2019-04-20T03:59:54.825Z,99.90
2019-04-20T04:02:52.807Z,99.90
2019-04-20T04:05:23.871Z,99.90
2019-04-20T04:07:42.272Z,99.90
2019-04-20T04:10:22.014Z,99.90
2019-04-20T04:13:09.595Z,99.90
2019-04-20T04:15:46.768Z,99.90
2019-04-20T04:18:17.729Z,99.90
2019-04-20T04:20:47.615Z,99.90
2019-04-20T04:23:29.218Z,99.90
2019-04-20T04:26:00.669Z,99.90
2019-04-20T04:28:31.189Z,99.90
2019-04-20T04:31:09.478Z,99.90
2019-04-20T04:36:01.661Z,99.90
2019-04-20T04:38:43.514Z,99.90
2019-04-20T04:41:13.992Z,99.90
2019-04-20T04:43:39.786Z,99.90
2019-04-20T04:45:51.345Z,99.90
2019-04-20T04:48:28.371Z,99.90
2019-04-20T04:50:59.135Z,99.90
2019-04-20T04:53:30.377Z,99.90
2019-04-20T04:55:59.579Z,99.90
2019-04-20T04:58:23.663Z,99.90
2019-04-20T05:00:56.846Z,99.90
2019-04-20T05:03:42.259Z,99.90
2019-04-20T05:06:20.885Z,99.90
2019-04-20T05:08:36.902Z,99.90
2019-04-20T05:11:00.815Z,99.90
2019-04-20T05:13:37.090Z,99.90
2019-04-20T05:16:13.221Z,99.90
2019-04-20T05:19:11.538Z,99.90
2019-04-20T05:21:23.833Z,99.90
2019-04-20T05:23:46.145Z,99.90
2019-04-20T05:26:32.670Z,99.90
2019-04-20T05:28:59.031Z,99.90
2019-04-20T05:31:23.484Z,99.90
2019-04-20T05:34:18.205Z,99.90
2019-04-20T05:36:42.824Z,99.90
2019-04-20T05:39:32.706Z,99.90
2019-04-20T05:41:42.943Z,99.90
2019-04-20T05:44:11.269Z,99.90
2019-04-20T05:46:41.016Z,99.90
2019-04-20T05:49:20.600Z,99.90
2019-04-20T05:51:43.231Z,99.90
2019-04-20T05:54:34.957Z,99.90
2019-04-20T05:56:50.119Z,99.90
2019-04-20T05:59:17.884Z,99.90
2019-04-20T06:01:54.303Z,99.90
2019-04-20T06:04:30.008Z,99.90
2019-04-20T06:06:53.548Z,99.90
2019-04-20T06:09:23.118Z,99.90
2019-04-20T06:12:04.820Z,99.90
2019-04-20T06:14:10.371Z,99.90
2019-04-20T06:17:00.102Z,99.90
2019-04-20T06:19:33.170Z,99.90
2019-04-20T06:22:07.243Z,99.90
2019-04-20T06:24:42.140Z,99.90
2019-04-20T06:27:06.287Z,99.90
2019-04-20T06:29:34.823Z,99.90
2019-04-20T06:32:06.648Z,99.90
2019-04-20T06:34:48.675Z,99.90
2019-04-20T06:37:02.065Z,99.90
2019-04-20T06:39:37.283Z,99.90
2019-04-20T06:42:17.622Z,99.90
2019-04-20T06:44:41.291Z,99.90
2019-04-20T06:47:15.796Z,99.90
2019-04-20T06:49:38.059Z,99.90
2019-04-20T06:52:15.421Z,99.90
2019-04-20T06:54:54.124Z,99.90
2019-04-20T06:57:33.115Z,99.90
2019-04-20T07:00:00.786Z,99.90
2019-04-20T07:04:59.988Z,99.90
2019-04-20T07:07:29.812Z,99.90
2019-04-20T07:10:08.577Z,99.90
2019-04-20T07:12:31.321Z,99.90
2019-04-20T07:14:50.973Z,99.90
2019-04-20T07:17:39.288Z,99.90
2019-04-20T07:20:04.538Z,99.90
2019-04-20T07:22:46.207Z,99.90
2019-04-20T07:25:20.244Z,99.90
2019-04-20T07:27:49.326Z,99.90
2019-04-20T07:30:16.478Z,99.90
2019-04-20T07:32:52.639Z,99.30
2019-04-20T07:35:23.243Z,97.70
2019-04-20T07:40:20.634Z,96.70
2019-04-20T07:45:28.326Z,96.70
2019-04-20T07:48:11.280Z,94.80
2019-04-20T07:50:18.360Z,95.40
2019-04-20T07:52:46.567Z,95.00
2019-04-20T07:57:50.029Z,93.90
2019-04-20T08:00:45.981Z,94.80
2019-04-20T08:03:23.653Z,93.60
2019-04-20T08:05:46.836Z,89.20
2019-04-20T08:08:23.964Z,88.70
2019-04-20T08:10:53.724Z,90.20
2019-04-20T08:13:40.572Z,89.00
2019-04-20T08:16:00.944Z,88.10
2019-04-20T08:18:33.890Z,85.20
2019-04-20T08:21:06.769Z,86.20
2019-04-20T08:23:33.468Z,84.00
2019-04-20T08:25:54.368Z,81.80
2019-04-20T08:28:22.804Z,82.10
2019-04-20T08:31:09.363Z,83.40
2019-04-20T08:34:07.459Z,83.90
2019-04-20T08:36:31.566Z,82.30
2019-04-20T08:39:32.245Z,79.20
2019-04-20T08:41:27.181Z,81.10
2019-04-20T08:44:11.148Z,77.50
2019-04-20T08:46:38.336Z,77.70
2019-04-20T08:49:01.576Z,76.50
2019-04-20T08:51:41.648Z,74.10
2019-04-20T08:54:06.887Z,74.90
2019-04-20T08:56:31.964Z,70.00
2019-04-20T08:58:50.624Z,70.30
2019-04-20T09:01:21.628Z,70.90
2019-04-20T09:03:58.930Z,68.60
2019-04-20T09:06:38.837Z,67.30
2019-04-20T09:09:03.689Z,69.40
2019-04-20T09:11:44.154Z,69.10
2019-04-20T09:14:00.452Z,64.60
2019-04-20T09:16:37.080Z,61.20
2019-04-20T09:19:04.670Z,63.40
2019-04-20T09:21:39.128Z,61.10
2019-04-20T09:24:30.540Z,59.30
2019-04-20T09:26:50.501Z,60.70
2019-04-20T09:29:11.798Z,60.70
2019-04-20T09:31:48.645Z,59.10
2019-04-20T09:34:39.319Z,59.10
2019-04-20T09:37:23.669Z,59.80
2019-04-20T09:40:02.411Z,57.70
2019-04-20T09:42:12.412Z,59.60
2019-04-20T09:44:46.056Z,57.10
2019-04-20T09:47:12.332Z,56.30
2019-04-20T09:49:54.142Z,60.00
2019-04-20T09:52:28.015Z,56.60
2019-04-20T09:54:59.280Z,55.90
2019-04-20T09:57:33.992Z,57.90
2019-04-20T10:00:01.732Z,56.20
2019-04-20T10:02:24.149Z,56.90
2019-04-20T10:04:47.814Z,54.50
2019-04-20T10:07:21.383Z,52.90
2019-04-20T10:09:47.406Z,53.90
2019-04-20T10:12:19.765Z,52.90
2019-04-20T10:14:48.944Z,56.50
2019-04-20T10:17:18.041Z,53.90
2019-04-20T10:19:48.678Z,56.50
2019-04-20T10:22:20.453Z,55.00
2019-04-20T10:24:51.826Z,55.10
2019-04-20T10:27:20.837Z,56.10
2019-04-20T10:29:49.850Z,55.50
2019-04-20T10:32:25.104Z,54.80
2019-04-20T10:34:52.740Z,55.50
2019-04-20T10:37:25.742Z,53.90
2019-04-20T10:39:54.619Z,54.00
2019-04-20T10:42:23.877Z,51.80
2019-04-20T10:44:57.083Z,52.20
2019-04-20T10:47:25.260Z,50.90
2019-04-20T10:49:56.565Z,50.30
2019-04-20T10:52:25.685Z,49.30
2019-04-20T10:54:54.747Z,49.00
2019-04-20T10:57:25.793Z,49.80
2019-04-20T10:59:53.506Z,49.00
2019-04-20T11:02:23.557Z,49.20
2019-04-20T11:04:52.914Z,49.10
2019-04-20T11:07:22.631Z,47.30
2019-04-20T11:10:04.433Z,45.80
2019-04-20T11:12:22.175Z,47.10
2019-04-20T11:14:52.220Z,46.90
2019-04-20T11:17:20.987Z,47.50
2019-04-20T11:19:51.526Z,48.30
2019-04-20T11:22:22.293Z,46.80
2019-04-20T11:24:52.362Z,44.80
2019-04-20T11:27:23.155Z,45.40
2019-04-20T11:30:04.353Z,44.10
2019-04-20T11:32:44.328Z,45.90
2019-04-20T11:35:22.811Z,43.00
2019-04-20T11:37:44.873Z,42.70
2019-04-20T11:40:14.985Z,41.30
2019-04-20T11:42:43.809Z,41.70
2019-04-20T11:45:13.396Z,42.90
2019-04-20T11:47:45.276Z,40.10
2019-04-20T11:50:15.572Z,40.20
2019-04-20T11:52:48.131Z,42.60
2019-04-20T11:55:16.118Z,43.00
2019-04-20T11:57:45.255Z,41.80
2019-04-20T12:00:17.161Z,39.80
2019-04-20T12:02:48.523Z,40.70
2019-04-20T12:05:29.837Z,40.60
2019-04-20T12:07:53.223Z,39.50
2019-04-20T12:10:24.060Z,38.10
2019-04-20T12:12:55.504Z,35.00
2019-04-20T12:15:26.574Z,37.90
2019-04-20T12:17:55.652Z,38.10
2019-04-20T12:20:24.994Z,37.90
2019-04-20T12:22:55.343Z,38.20
2019-04-20T12:25:23.913Z,39.10
2019-04-20T12:27:58.688Z,38.90
2019-04-20T12:30:27.973Z,38.80
2019-04-20T12:32:59.774Z,38.50
2019-04-20T12:35:27.136Z,38.20
2019-04-20T12:37:56.789Z,37.60
2019-04-20T12:40:28.110Z,38.00
2019-04-20T12:42:59.305Z,37.80
2019-04-20T12:45:29.278Z,39.20
2019-04-20T12:47:57.918Z,40.70
2019-04-20T12:50:27.663Z,38.70
2019-04-20T12:52:56.732Z,37.70
2019-04-20T12:55:26.613Z,40.70
2019-04-20T12:57:56.568Z,38.00
2019-04-20T13:00:45.890Z,38.80
2019-04-20T13:03:14.894Z,39.10
2019-04-20T13:05:44.212Z,37.90
2019-04-20T13:08:20.883Z,39.30
2019-04-20T13:10:46.579Z,37.90
2019-04-20T13:13:16.855Z,39.00
2019-04-20T13:15:47.097Z,39.10
2019-04-20T13:18:21.271Z,37.20
2019-04-20T13:20:50.962Z,37.10
2019-04-20T13:23:20.813Z,38.00
2019-04-20T13:25:51.004Z,37.70
2019-04-20T13:28:19.555Z,37.70
2019-04-20T13:30:48.172Z,37.80
2019-04-20T13:33:17.595Z,36.30
2019-04-20T13:35:46.244Z,37.20
2019-04-20T13:38:16.218Z,37.60
2019-04-20T13:40:45.928Z,37.40
2019-04-20T13:43:15.972Z,37.30
2019-04-20T13:45:45.238Z,36.50
2019-04-20T13:48:15.117Z,36.30
2019-04-20T13:50:44.296Z,37.20
2019-04-20T13:53:12.812Z,38.00
2019-04-20T13:55:44.129Z,38.40
2019-04-20T13:58:33.854Z,36.50
2019-04-20T14:01:08.750Z,38.90
2019-04-20T14:03:38.736Z,37.40
2019-04-20T14:06:08.873Z,40.80
2019-04-20T14:08:39.189Z,38.80
2019-04-20T14:11:07.742Z,39.80
2019-04-20T14:13:42.008Z,37.50
2019-04-20T14:16:07.270Z,37.70
2019-04-20T14:18:37.397Z,37.30
2019-04-20T14:21:06.029Z,36.70
2019-04-20T14:23:34.894Z,37.50
2019-04-20T14:26:03.503Z,38.20
2019-04-20T14:28:33.314Z,36.30
2019-04-20T14:31:01.984Z,36.80
2019-04-20T14:33:30.924Z,37.30
2019-04-20T14:36:01.005Z,38.20
2019-04-20T14:38:30.690Z,38.60
2019-04-20T14:41:00.183Z,44.60
2019-04-20T14:43:31.679Z,38.00
2019-04-20T14:46:00.882Z,37.10
2019-04-20T14:48:31.069Z,40.90
2019-04-20T14:50:59.898Z,37.70
2019-04-20T14:53:29.590Z,40.80
2019-04-20T14:55:58.117Z,39.40
2019-04-20T14:58:41.561Z,37.80
2019-04-20T15:01:28.654Z,39.00
2019-04-20T15:04:04.778Z,39.00
2019-04-20T15:06:29.704Z,40.20
2019-04-20T15:08:58.826Z,38.30
2019-04-20T15:11:27.481Z,40.90
2019-04-20T15:13:56.528Z,41.50
2019-04-20T15:16:26.490Z,38.40
2019-04-20T15:18:57.970Z,37.70
2019-04-20T15:21:33.986Z,36.50
2019-04-20T15:24:03.718Z,38.00
2019-04-20T15:26:32.270Z,41.00
2019-04-20T15:29:02.074Z,38.90
2019-04-20T15:31:32.208Z,40.70
2019-04-20T15:34:01.288Z,45.20
2019-04-20T15:36:29.938Z,42.30
2019-04-20T15:38:59.048Z,41.60
2019-04-20T15:41:27.570Z,41.40
2019-04-20T15:43:57.325Z,43.30
2019-04-20T15:46:27.604Z,41.80
2019-04-20T15:48:57.750Z,42.70
2019-04-20T15:51:27.925Z,42.50
2019-04-20T15:53:57.706Z,41.20
2019-04-20T15:56:26.878Z,41.10
2019-04-20T15:58:56.600Z,41.40
2019-04-20T16:01:28.331Z,41.40
2019-04-20T16:04:01.465Z,40.20
2019-04-20T16:06:31.535Z,42.60
2019-04-20T16:09:02.078Z,42.90
2019-04-20T16:11:31.049Z,45.50
2019-04-20T16:14:00.208Z,44.10
2019-04-20T16:16:30.006Z,42.10
2019-04-20T16:19:04.968Z,40.30
2019-04-20T16:21:33.923Z,41.00
2019-04-20T16:24:04.311Z,45.30
2019-04-20T16:26:37.855Z,40.90
2019-04-20T16:29:08.071Z,41.00
2019-04-20T16:31:38.285Z,41.00
2019-04-20T16:34:07.671Z,41.90
2019-04-20T16:36:36.725Z,41.50
2019-04-20T16:39:09.105Z,47.00
2019-04-20T16:41:38.192Z,42.00
2019-04-20T16:44:07.317Z,46.40
2019-04-20T16:46:40.673Z,41.40
2019-04-20T16:49:10.888Z,44.00
2019-04-20T16:51:41.332Z,44.50
2019-04-20T16:54:10.221Z,43.30
2019-04-20T16:56:39.106Z,46.60
2019-04-20T16:59:11.360Z,52.10
2019-04-20T17:01:38.152Z,45.40
2019-04-20T17:04:15.446Z,45.90
2019-04-20T17:07:00.428Z,46.90
2019-04-20T17:09:31.482Z,46.60
2019-04-20T17:12:01.786Z,52.00
2019-04-20T17:14:31.957Z,50.60
2019-04-20T17:17:01.723Z,58.10
2019-04-20T17:19:31.406Z,51.60
2019-04-20T17:22:01.237Z,53.00
2019-04-20T17:24:31.242Z,50.50
2019-04-20T17:27:19.146Z,52.70
2019-04-20T17:30:03.101Z,52.30
2019-04-20T17:32:34.199Z,51.20
2019-04-20T17:35:19.446Z,59.10
2019-04-20T17:37:39.408Z,64.30
2019-04-20T17:40:27.224Z,58.50
2019-04-20T17:42:47.320Z,57.80
2019-04-20T17:45:14.006Z,53.00
2019-04-20T17:47:58.308Z,62.00
2019-04-20T17:50:29.410Z,54.80
2019-04-20T17:52:53.897Z,49.50
2019-04-20T17:55:22.925Z,55.50
2019-04-20T17:57:43.751Z,52.20
2019-04-20T18:00:29.082Z,52.50
2019-04-20T18:03:17.604Z,58.40
2019-04-20T18:05:55.791Z,58.90
2019-04-20T18:08:27.270Z,60.10
2019-04-20T18:10:50.738Z,57.10
2019-04-20T18:13:14.360Z,59.60
2019-04-20T18:15:52.824Z,54.20
2019-04-20T18:18:40.897Z,58.20
2019-04-20T18:20:56.921Z,58.20
2019-04-20T18:23:33.722Z,65.30
2019-04-20T18:26:17.160Z,68.60
2019-04-20T18:28:51.419Z,69.30
2019-04-20T18:31:03.696Z,67.00
2019-04-20T18:33:34.941Z,69.00
2019-04-20T18:36:03.476Z,64.40
2019-04-20T18:38:39.260Z,68.00
2019-04-20T18:41:09.140Z,70.00
2019-04-20T18:43:43.875Z,71.50
2019-04-20T18:46:27.894Z,69.80
2019-04-20T18:48:54.285Z,71.00
2019-04-20T18:51:09.943Z,70.10
2019-04-20T18:53:42.846Z,70.70
2019-04-20T18:56:09.501Z,68.80
2019-04-20T18:58:38.501Z,68.90
2019-04-20T19:01:07.539Z,68.30
2019-04-20T19:03:41.906Z,71.40
2019-04-20T19:06:07.770Z,68.70
2019-04-20T19:08:40.413Z,68.40
2019-04-20T19:11:11.436Z,70.70
2019-04-20T19:13:45.885Z,73.80
2019-04-20T19:16:33.010Z,73.20
2019-04-20T19:19:16.918Z,72.60
2019-04-20T19:21:35.262Z,71.60
2019-04-20T19:24:10.950Z,65.60
2019-04-20T19:26:38.527Z,69.30
2019-04-20T19:29:15.674Z,70.40
2019-04-20T19:31:57.349Z,70.50
2019-04-20T19:34:28.416Z,73.10
2019-04-20T19:36:53.363Z,72.90
2019-04-20T19:39:25.967Z,76.50
2019-04-20T19:41:50.742Z,74.60
2019-04-20T19:44:22.549Z,76.60
2019-04-20T19:47:05.225Z,74.60
2019-04-20T19:49:25.360Z,76.10
2019-04-20T19:52:14.875Z,71.10
2019-04-20T19:54:34.494Z,73.90
2019-04-20T19:57:00.515Z,75.50
2019-04-20T19:59:25.148Z,78.40
2019-04-20T20:01:47.552Z,79.10
2019-04-20T20:04:17.561Z,80.10
2019-04-20T20:06:52.815Z,77.70
2019-04-20T20:09:18.303Z,81.10
2019-04-20T20:11:48.498Z,75.10
2019-04-20T20:14:25.606Z,77.70
2019-04-20T20:17:02.733Z,81.20
2019-04-20T20:19:40.928Z,78.60
2019-04-20T20:22:05.580Z,77.70
2019-04-20T20:24:23.255Z,79.30
2019-04-20T20:26:58.740Z,77.20
2019-04-20T20:29:30.532Z,78.90
2019-04-20T20:32:05.030Z,76.60
2019-04-20T20:34:32.407Z,78.10
2019-04-20T20:37:00.578Z,75.80
2019-04-20T20:39:30.939Z,76.60
2019-04-20T20:42:08.998Z,78.50
2019-04-20T20:44:38.911Z,75.70
2019-04-20T20:47:18.571Z,77.40
2019-04-20T20:49:46.819Z,76.50
2019-04-20T20:52:20.535Z,77.60
2019-04-20T20:54:41.144Z,79.10
2019-04-20T20:57:05.670Z,76.90
2019-04-20T20:59:40.235Z,75.40
2019-04-20T21:02:06.389Z,75.80
2019-04-20T21:04:31.136Z,73.50
2019-04-20T21:07:00.683Z,74.70
2019-04-20T21:09:29.347Z,74.70
2019-04-20T21:12:04.314Z,75.40
2019-04-20T21:14:34.826Z,75.00
2019-04-20T21:17:12.232Z,72.70
2019-04-20T21:19:49.055Z,75.70
2019-04-20T21:22:11.512Z,76.60
2019-04-20T21:24:37.854Z,76.60
2019-04-20T21:27:10.219Z,76.70
2019-04-20T21:29:44.380Z,79.80
2019-04-20T21:32:12.555Z,81.10
2019-04-20T21:34:37.735Z,81.60
2019-04-20T21:37:12.150Z,83.50
2019-04-20T21:39:44.263Z,81.90
2019-04-20T21:42:12.495Z,81.80
2019-04-20T21:44:44.368Z,82.50
2019-04-20T21:47:10.731Z,81.20
2019-04-20T21:49:52.827Z,87.20
2019-04-20T21:52:22.199Z,84.90
2019-04-20T21:54:42.237Z,84.50
2019-04-20T21:57:12.942Z,86.60
2019-04-20T21:59:45.447Z,84.50
2019-04-20T22:02:20.843Z,88.10
2019-04-20T22:04:43.031Z,87.80
2019-04-20T22:07:12.460Z,83.20
2019-04-20T22:09:46.751Z,85.20
2019-04-20T22:12:12.039Z,83.90
2019-04-20T22:14:41.862Z,88.10
2019-04-20T22:17:14.163Z,87.40
2019-04-20T22:19:48.978Z,87.70
2019-04-20T22:22:22.805Z,86.40
2019-04-20T22:24:56.285Z,85.60
2019-04-20T22:27:20.249Z,83.70
2019-04-20T22:29:44.322Z,84.40
2019-04-20T22:32:16.499Z,85.20
2019-04-20T22:34:47.516Z,86.30
2019-04-20T22:37:20.095Z,88.60
2019-04-20T22:39:54.032Z,85.00
2019-04-20T22:42:19.705Z,86.10
2019-04-20T22:44:56.662Z,84.90
2019-04-20T22:47:25.401Z,85.40
2019-04-20T22:50:12.922Z,84.50
2019-04-20T22:52:34.763Z,85.10
2019-04-20T22:55:13.983Z,84.90
2019-04-20T22:57:38.493Z,84.70
2019-04-20T23:00:02.108Z,84.80
2019-04-20T23:02:24.776Z,88.10
2019-04-20T23:04:53.228Z,86.60
2019-04-20T23:07:23.033Z,85.60
2019-04-20T23:09:56.077Z,87.20
2019-04-20T23:12:23.739Z,91.10
2019-04-20T23:14:54.266Z,92.20
2019-04-20T23:17:29.899Z,89.20
2019-04-20T23:19:57.449Z,91.40
2019-04-20T23:22:32.949Z,92.40
2019-04-20T23:24:55.256Z,91.60
2019-04-20T23:27:29.176Z,92.00
2019-04-20T23:29:55.242Z,92.90
2019-04-20T23:32:27.997Z,94.40
2019-04-20T23:34:59.082Z,94.20
2019-04-20T23:37:31.191Z,95.20
2019-04-20T23:39:56.492Z,95.30
2019-04-20T23:42:40.195Z,93.80
2019-04-20T23:45:11.634Z,93.70
2019-04-20T23:47:47.897Z,94.60
2019-04-20T23:50:34.221Z,95.30
2019-04-20T23:53:08.361Z,95.40
2019-04-20T23:55:18.665Z,95.90
2019-04-20T23:57:55.912Z,95.90
